Time;durP1;ratioP1;P1;durP2;ratioP2;P2;SDS_P1;SDS_P2;PMS_P1;PMS_P2;Temp;Humidity;BMP_temperature;BMP_pressure;BME280_temperature;BME280_humidity;BME280_pressure;Samples;Min_cycle;Max_cycle;Signal;HPM_P1;HPM_P2
2024/01/09 00:02:10;;;;;;;2.55;1.60;;;;;;;-4.46;64.50;103260.81;5125399;27;20035;-82
2024/01/09 00:04:36;;;;;;;6.13;4.50;;;;;;;-4.50;64.59;103253.84;5098873;27;20015;-83
2024/01/09 00:07:01;;;;;;;7.20;1.90;;;;;;;-4.47;64.87;103259.06;5105905;27;20031;-82
2024/01/09 00:09:27;;;;;;;5.25;2.35;;;;;;;-4.48;65.33;103251.31;5118612;27;20403;-81
2024/01/09 00:11:52;;;;;;;5.07;4.55;;;;;;;-4.53;65.26;103253.78;5105868;28;20054;-82
2024/01/09 00:14:17;;;;;;;4.22;2.53;;;;;;;-4.49;65.67;103255.59;5127096;27;20300;-82
2024/01/09 00:16:43;;;;;;;5.78;4.50;;;;;;;-4.56;65.88;103252.81;5127843;27;20727;-82
2024/01/09 00:19:08;;;;;;;4.15;1.92;;;;;;;-4.51;65.58;103251.25;5126638;27;20031;-81
2024/01/09 00:21:33;;;;;;;3.30;2.03;;;;;;;-4.55;65.94;103245.16;5109206;28;20470;-82
2024/01/09 00:23:59;;;;;;;6.28;5.07;;;;;;;-4.63;65.82;103244.06;5126576;28;20482;-82
2024/01/09 00:26:24;;;;;;;3.72;2.20;;;;;;;-4.56;65.79;103250.25;5108510;28;20102;-82
2024/01/09 00:28:49;;;;;;;4.13;2.28;;;;;;;-4.55;66.13;103247.72;5127265;28;20529;-82
2024/01/09 00:31:15;;;;;;;3.60;1.77;;;;;;;-4.58;66.29;103250.22;5107305;28;20031;-81
2024/01/09 00:33:40;;;;;;;5.13;2.50;;;;;;;-4.58;66.38;103252.78;5107257;28;20015;-81
2024/01/09 00:36:06;;;;;;;4.50;2.30;;;;;;;-4.61;66.56;103242.41;5125657;28;20123;-81
2024/01/09 00:38:32;;;;;;;4.78;2.90;;;;;;;-4.61;66.50;103249.25;5106568;28;20487;-81
2024/01/09 00:40:58;;;;;;;5.82;4.88;;;;;;;-4.68;66.71;103244.78;5094545;28;20118;-81
2024/01/09 00:43:23;;;;;;;4.35;1.98;;;;;;;-4.63;67.00;103241.50;5095416;28;20027;-82
2024/01/09 00:45:49;;;;;;;3.53;2.20;;;;;;;-4.64;66.96;103247.47;5123198;27;20015;-81
2024/01/09 00:48:14;;;;;;;3.75;2.08;;;;;;;-4.63;66.95;103245.78;5111692;28;20080;-81
2024/01/09 00:50:40;;;;;;;5.57;2.35;;;;;;;-4.63;67.42;103243.22;5098246;28;20538;-82
2024/01/09 00:53:06;;;;;;;2.95;1.88;;;;;;;-4.68;66.83;103245.66;5105216;28;20027;-83
2024/01/09 00:55:31;;;;;;;7.03;5.25;;;;;;;-4.74;67.73;103240.34;5124783;28;20030;-81
2024/01/09 00:57:56;;;;;;;11.00;5.35;;;;;;;-4.71;67.60;103247.28;5087893;28;20027;-82
2024/01/09 01:00:21;;;;;;;3.17;1.60;;;;;;;-4.66;67.28;103248.25;5106680;27;20067;-82
2024/01/09 01:02:48;;;;;;;4.28;1.98;;;;;;;-4.69;67.73;103240.47;5087847;28;20046;-82
2024/01/09 01:05:17;;;;;;;6.32;2.58;;;;;;;-4.71;67.78;103243.00;5098753;28;20024;-82
2024/01/09 01:07:43;;;;;;;6.05;4.93;;;;;;;-4.79;67.79;103239.38;5108197;28;20699;-81
2024/01/09 01:10:13;;;;;;;3.30;1.88;;;;;;;-4.72;67.92;103248.97;5111232;27;20062;-82
2024/01/09 01:12:39;;;;;;;3.80;2.08;;;;;;;-4.73;67.63;103244.66;5107696;28;20083;-81
2024/01/09 01:15:05;;;;;;;3.10;1.65;;;;;;;-4.76;67.60;103239.44;5114256;28;20099;-82
2024/01/09 01:17:30;;;;;;;4.78;1.73;;;;;;;-4.76;68.08;103242.00;5086915;28;20019;-82
2024/01/09 01:19:55;;;;;;;3.88;2.30;;;;;;;-4.70;67.72;103249.88;5107377;28;20019;-82
2024/01/09 01:22:21;;;;;;;6.28;5.10;;;;;;;-4.80;67.60;103238.50;5106051;27;20047;-81
2024/01/09 01:24:46;;;;;;;3.75;2.03;;;;;;;-4.77;67.70;103255.69;5111117;27;20047;-82
2024/01/09 01:27:12;;;;;;;3.88;1.83;;;;;;;-4.76;67.45;103242.00;5130025;27;20070;-81
2024/01/09 01:29:37;;;;;;;2.85;1.85;;;;;;;-4.80;67.92;103237.63;5111516;27;20098;-81
2024/01/09 01:32:09;;;;;;;2.88;1.98;;;;;;;-4.79;67.88;103249.63;5111531;27;20095;-81
2024/01/09 01:34:34;;;;;;;4.57;2.47;;;;;;;-4.79;67.71;103250.50;5112061;27;20530;-81
2024/01/09 01:36:59;;;;;;;6.53;4.93;;;;;;;-4.89;67.54;103251.03;5129253;27;20126;-80
2024/01/09 01:39:25;;;;;;;4.15;2.00;;;;;;;-4.81;67.99;103257.25;5127617;27;20027;-80
2024/01/09 01:41:50;;;;;;;3.53;2.42;;;;;;;-4.85;67.83;103268.28;5103403;28;20020;-82
2024/01/09 01:44:17;;;;;;;3.05;2.08;;;;;;;-4.87;68.35;103262.22;5107549;27;20038;-81
2024/01/09 01:46:44;;;;;;;2.10;1.48;;;;;;;-4.89;68.76;103252.75;5109697;27;20102;-81
2024/01/09 01:49:12;;;;;;;3.30;1.70;;;;;;;-4.90;68.88;103251.88;5108379;28;20032;-81
2024/01/09 01:51:38;;;;;;;6.30;4.82;;;;;;;-4.99;68.92;103251.63;5108915;27;20031;-81
2024/01/09 01:54:04;;;;;;;3.00;1.90;;;;;;;-4.94;68.90;103250.06;5125254;27;20494;-82
2024/01/09 01:56:30;;;;;;;3.17;1.60;;;;;;;-4.95;68.90;103247.44;5105374;27;20031;-80
2024/01/09 01:58:56;;;;;;;3.47;1.45;;;;;;;-4.93;68.79;103244.09;5101685;27;20050;-81
2024/01/09 02:01:22;;;;;;;5.38;4.47;;;;;;;-5.02;68.87;103243.84;5109584;27;20495;-81
2024/01/09 02:03:47;;;;;;;2.55;1.63;;;;;;;-4.98;68.75;103250.78;5097896;27;20030;-82
2024/01/09 02:06:13;;;;;;;3.47;1.52;;;;;;;-4.99;69.07;103251.63;5127507;27;20027;-81
2024/01/09 02:08:39;;;;;;;7.45;4.65;;;;;;;-5.08;69.60;103252.22;5126000;27;20828;-80
2024/01/09 02:11:05;;;;;;;6.25;2.33;;;;;;;-5.05;69.82;103257.44;5100370;28;20123;-81
2024/01/09 02:13:30;;;;;;;2.65;1.83;;;;;;;-5.04;69.25;103248.06;5088865;27;20414;-81
2024/01/09 02:15:56;;;;;;;3.05;1.98;;;;;;;-5.03;69.46;103244.66;5128198;27;20483;-81
2024/01/09 02:18:21;;;;;;;5.95;4.80;;;;;;;-5.15;69.93;103240.06;5128135;27;20049;-80
2024/01/09 02:20:46;;;;;;;4.85;4.35;;;;;;;-5.15;69.70;103237.50;5109955;27;20023;-80
2024/01/09 02:23:12;;;;;;;6.13;4.55;;;;;;;-5.15;69.92;103240.06;5109147;27;20026;-80
2024/01/09 02:25:37;;;;;;;3.45;1.73;;;;;;;-5.12;70.09;103240.13;5128036;27;20544;-81
2024/01/09 02:28:26;;;;;;;4.78;2.17;;;;;;;-5.10;69.78;103246.19;5128554;27;20064;-81
2024/01/09 02:30:55;;;;;;;4.70;1.92;;;;;;;-5.13;70.23;103243.53;5128429;27;20057;-81
2024/01/09 02:33:21;;;;;;;4.47;1.90;;;;;;;-5.10;70.34;103246.19;5127243;27;20026;-81
2024/01/09 02:35:46;;;;;;;5.88;2.25;;;;;;;-5.18;70.17;103239.97;5111083;27;20027;-81
2024/01/09 02:38:11;;;;;;;2.53;1.63;;;;;;;-5.18;70.93;103242.53;5128163;27;20019;-80
2024/01/09 02:40:37;;;;;;;7.50;2.08;;;;;;;-5.19;70.57;103232.22;5111550;27;20024;-81
2024/01/09 02:43:03;;;;;;;6.55;4.90;;;;;;;-5.26;70.92;103236.28;5123772;27;20074;-81
2024/01/09 02:45:28;;;;;;;6.38;5.07;;;;;;;-5.29;71.13;103231.06;5127053;27;20030;-80
2024/01/09 02:47:53;;;;;;;3.03;1.95;;;;;;;-5.23;70.98;103236.38;5114283;27;20028;-81
2024/01/09 02:50:22;;;;;;;3.90;1.92;;;;;;;-5.21;70.75;103228.72;5090573;27;20032;-80
2024/01/09 02:52:50;;;;;;;7.57;2.70;;;;;;;-5.24;71.40;103221.78;5094597;28;20133;-80
2024/01/09 02:55:15;;;;;;;4.65;2.15;;;;;;;-5.26;71.34;103226.00;5087906;28;20046;-80
2024/01/09 02:57:41;;;;;;;5.18;2.38;;;;;;;-5.26;71.11;103231.16;5113209;27;20475;-80
2024/01/09 03:00:08;;;;;;;4.97;2.08;;;;;;;-5.27;71.53;103229.41;5118083;27;20519;-81
2024/01/09 03:02:35;;;;;;;4.20;2.30;;;;;;;-5.30;71.84;103223.31;5110557;27;20656;-81
2024/01/09 03:05:01;;;;;;;5.60;4.88;;;;;;;-5.37;71.50;103217.13;5104240;27;20038;-80
2024/01/09 03:07:26;;;;;;;6.35;4.90;;;;;;;-5.39;71.86;103204.28;5107549;27;20027;-80
2024/01/09 03:09:52;;;;;;;6.35;4.93;;;;;;;-5.38;71.59;103211.13;5114027;27;20156;-80
2024/01/09 03:12:17;;;;;;;4.18;2.22;;;;;;;-5.35;71.75;103215.50;5111108;27;20194;-80
2024/01/09 03:14:43;;;;;;;4.38;2.95;;;;;;;-5.34;72.02;103209.53;5105657;28;20126;-81
2024/01/09 03:17:08;;;;;;;4.22;2.28;;;;;;;-5.33;71.67;103215.53;5106239;28;20030;-80
2024/01/09 03:19:34;;;;;;;6.65;4.90;;;;;;;-5.43;72.42;103211.84;5089527;27;20365;-80
2024/01/09 03:21:59;;;;;;;6.38;4.93;;;;;;;-5.45;72.76;103210.91;5092060;27;20074;-80
2024/01/09 03:24:25;;;;;;;5.63;2.47;;;;;;;-5.41;72.95;103212.75;5108827;27;20024;-80
2024/01/09 03:26:50;;;;;;;7.10;5.35;;;;;;;-5.48;72.71;103218.53;5120709;27;20034;-81
2024/01/09 03:29:19;;;;;;;7.50;1.75;;;;;;;-5.43;72.89;103222.09;5106953;27;20364;-81
2024/01/09 03:31:45;;;;;;;4.03;2.15;;;;;;;-5.44;72.68;103221.22;5109954;27;20098;-81
2024/01/09 03:34:10;;;;;;;3.30;1.90;;;;;;;-5.44;73.05;103220.34;5106166;28;20141;-81
2024/01/09 03:36:38;;;;;;;5.78;4.85;;;;;;;-5.52;73.31;103221.81;5088125;28;20020;-81
2024/01/09 03:39:04;;;;;;;4.72;2.28;;;;;;;-5.47;73.54;103220.25;5100441;27;20168;-81
2024/01/09 03:41:30;;;;;;;2.13;1.60;;;;;;;-5.46;73.71;103216.88;5126275;27;20027;-81
2024/01/09 03:43:55;;;;;;;3.72;1.55;;;;;;;-5.47;73.76;103210.00;5121148;27;20102;-81
2024/01/09 03:46:20;;;;;;;2.50;1.65;;;;;;;-5.52;74.01;103207.31;5099160;27;20038;-80
2024/01/09 03:48:46;;;;;;;4.05;2.10;;;;;;;-5.51;74.13;103208.19;5114861;27;20179;-80
2024/01/09 03:51:11;;;;;;;3.20;1.90;;;;;;;-5.52;74.13;103226.94;5088043;28;20042;-81
2024/01/09 03:53:36;;;;;;;6.05;2.95;;;;;;;-5.53;74.47;103220.09;5107179;28;20028;-81
2024/01/09 03:56:02;;;;;;;5.15;2.22;;;;;;;-5.54;74.21;103214.09;5106555;27;20015;-81
2024/01/09 03:58:28;;;;;;;4.55;2.40;;;;;;;-5.56;74.98;103205.47;5088216;28;20033;-81
2024/01/09 04:00:53;;;;;;;5.68;2.15;;;;;;;-5.57;74.59;103208.00;5109991;27;20429;-80
2024/01/09 04:03:18;;;;;;;6.57;5.22;;;;;;;-5.67;75.37;103207.69;5119552;27;20023;-80
2024/01/09 04:05:44;;;;;;;6.30;2.80;;;;;;;-5.62;75.09;103219.78;5118149;27;20036;-80
2024/01/09 04:08:09;;;;;;;4.20;2.47;;;;;;;-5.63;75.46;103210.34;5111863;27;20023;-80
2024/01/09 04:10:35;;;;;;;3.67;2.17;;;;;;;-5.63;75.82;103215.47;5124983;27;20031;-80
2024/01/09 04:13:02;;;;;;;5.80;4.85;;;;;;;-5.69;75.50;103205.91;5106000;28;20030;-80
2024/01/09 04:15:28;;;;;;;4.57;1.92;;;;;;;-5.65;75.51;103204.31;5106708;28;20142;-80
2024/01/09 04:17:53;;;;;;;5.05;2.33;;;;;;;-5.64;75.37;103206.91;5124970;27;20027;-80
2024/01/09 04:20:18;;;;;;;7.07;5.35;;;;;;;-5.70;75.86;103207.59;5106972;27;20027;-80
2024/01/09 04:22:44;;;;;;;4.03;2.47;;;;;;;-5.64;75.65;103206.03;5101839;27;20039;-81
2024/01/09 04:25:10;;;;;;;4.45;2.72;;;;;;;-5.64;75.24;103206.03;5088589;28;20024;-80
2024/01/09 04:27:36;;;;;;;4.63;2.30;;;;;;;-5.65;75.73;103207.72;5119515;27;20050;-81
2024/01/09 04:30:01;;;;;;;6.38;2.78;;;;;;;-5.63;75.50;103207.78;5086745;28;20534;-80
2024/01/09 04:32:27;;;;;;;6.18;4.75;;;;;;;-5.70;75.05;103207.59;5108743;28;20026;-79
2024/01/09 04:34:57;;;;;;;9.57;2.60;;;;;;;-5.65;75.47;103210.28;5101753;27;20019;-80
2024/01/09 04:37:22;;;;;;;3.58;1.98;;;;;;;-5.63;75.51;103207.78;5095605;28;20034;-80
2024/01/09 04:39:48;;;;;;;1.90;1.38;;;;;;;-5.67;75.31;103217.94;5107287;28;20019;-81
2024/01/09 04:42:13;;;;;;;3.35;1.95;;;;;;;-5.65;75.74;103209.44;5125577;28;20035;-79
2024/01/09 04:44:38;;;;;;;4.93;2.78;;;;;;;-5.69;75.28;103206.78;5107588;28;20134;-79
2024/01/09 04:47:04;;;;;;;2.90;2.08;;;;;;;-5.71;75.64;103220.38;5125566;27;20019;-80
2024/01/09 04:49:29;;;;;;;5.05;2.20;;;;;;;-5.73;75.77;103212.63;5127151;27;20023;-80
2024/01/09 04:51:54;;;;;;;7.38;5.00;;;;;;;-5.79;76.09;103206.44;5108574;28;20019;-80
2024/01/09 04:54:20;;;;;;;7.53;5.28;;;;;;;-5.80;75.92;103210.69;5128794;27;20522;-79
2024/01/09 04:56:45;;;;;;;3.55;1.90;;;;;;;-5.74;76.08;103216.00;5131413;27;20026;-79
2024/01/09 04:59:10;;;;;;;3.03;2.13;;;;;;;-5.76;76.37;103207.41;5110632;27;20866;-80
2024/01/09 05:01:36;;;;;;;6.10;4.95;;;;;;;-5.84;76.35;103208.88;5111811;27;20495;-80
2024/01/09 05:04:01;;;;;;;2.60;2.00;;;;;;;-5.79;76.70;103217.56;5130469;27;20071;-80
2024/01/09 05:06:27;;;;;;;5.35;2.13;;;;;;;-5.79;76.70;103209.00;5112561;27;20027;-80
2024/01/09 05:08:52;;;;;;;2.35;1.75;;;;;;;-5.74;76.12;103210.88;5118114;27;20024;-81
2024/01/09 05:11:18;;;;;;;5.78;2.33;;;;;;;-5.76;75.93;103202.28;5092337;27;20145;-80
2024/01/09 05:13:43;;;;;;;5.28;2.63;;;;;;;-5.73;75.38;103207.50;5090946;28;20019;-80
2024/01/09 05:16:08;;;;;;;8.82;5.30;;;;;;;-5.84;75.83;103208.00;5116532;27;20627;-80
2024/01/09 05:18:34;;;;;;;3.97;2.08;;;;;;;-5.78;75.46;103208.19;5105519;27;20035;-80
2024/01/09 05:20:59;;;;;;;3.20;1.90;;;;;;;-5.80;75.81;103205.56;5110694;27;20019;-80
2024/01/09 05:23:25;;;;;;;5.90;3.60;;;;;;;-5.81;75.99;103214.09;5109632;27;20076;-80
2024/01/09 05:25:50;;;;;;;7.95;5.55;;;;;;;-5.88;75.73;103211.28;5090388;28;20035;-79
2024/01/09 05:28:16;;;;;;;6.13;2.80;;;;;;;-5.86;75.73;103215.63;5101322;27;20027;-80
2024/01/09 05:30:45;;;;;;;2.75;1.85;;;;;;;-5.83;76.01;103212.31;5128763;27;20054;-80
2024/01/09 05:33:11;;;;;;;3.80;2.03;;;;;;;-5.85;76.45;103219.94;5109760;27;20027;-81
2024/01/09 05:35:36;;;;;;;4.07;2.25;;;;;;;-5.86;76.33;103210.53;5100820;28;20778;-79
2024/01/09 05:38:01;;;;;;;4.88;2.65;;;;;;;-5.86;76.26;103204.53;5119285;27;20055;-80
2024/01/09 05:40:27;;;;;;;2.88;1.92;;;;;;;-5.83;76.16;103204.63;5112042;27;20110;-80
2024/01/09 05:42:53;;;;;;;4.82;2.45;;;;;;;-5.87;76.38;103202.78;5099857;28;20073;-80
2024/01/09 05:45:18;;;;;;;5.00;2.45;;;;;;;-5.88;76.31;103209.59;5098754;27;20027;-80
2024/01/09 05:47:44;;;;;;;5.90;2.85;;;;;;;-5.90;76.49;103213.84;5108799;27;20100;-80
2024/01/09 05:50:09;;;;;;;4.22;2.05;;;;;;;-5.89;76.72;103205.28;5107201;28;20104;-80
2024/01/09 05:52:36;;;;;;;6.80;2.67;;;;;;;-5.90;76.63;103206.16;5109249;28;20540;-80
2024/01/09 05:55:03;;;;;;;3.70;2.42;;;;;;;-5.90;76.41;103213.84;5108703;27;20016;-80
2024/01/09 05:57:28;;;;;;;4.28;2.60;;;;;;;-5.89;76.75;103217.28;5108697;28;20103;-80
2024/01/09 05:59:53;;;;;;;6.18;3.05;;;;;;;-5.90;77.04;103208.72;5109669;28;20720;-80
2024/01/09 06:02:21;;;;;;;6.45;5.43;;;;;;;-5.97;77.12;103214.47;5123280;27;20046;-80
2024/01/09 06:04:47;;;;;;;7.57;5.63;;;;;;;-5.98;76.56;103209.31;5091585;28;20471;-79
2024/01/09 06:07:12;;;;;;;5.78;2.80;;;;;;;-5.93;76.81;103203.50;5125639;27;20023;-80
2024/01/09 06:09:38;;;;;;;7.20;5.78;;;;;;;-6.01;77.75;103205.78;5120313;27;20033;-80
2024/01/09 06:12:03;;;;;;;4.53;2.08;;;;;;;-5.95;76.76;103204.28;5106440;27;20106;-80
2024/01/09 06:14:29;;;;;;;5.88;2.35;;;;;;;-5.95;77.56;103202.56;5102953;27;20035;-80
2024/01/09 06:16:54;;;;;;;6.35;2.40;;;;;;;-5.96;77.07;103198.28;5117992;27;20028;-80
2024/01/09 06:19:19;;;;;;;8.23;6.32;;;;;;;-6.04;77.66;103204.81;5089401;28;20019;-80
2024/01/09 06:21:45;;;;;;;5.55;2.75;;;;;;;-6.00;77.68;103211.81;5090684;28;20043;-81
2024/01/09 06:24:10;;;;;;;5.72;2.17;;;;;;;-5.97;77.46;103211.91;5096757;27;20114;-80
2024/01/09 06:26:35;;;;;;;9.25;5.65;;;;;;;-6.05;77.30;103213.31;5111252;27;20019;-80
2024/01/09 06:29:01;;;;;;;9.52;6.30;;;;;;;-6.08;77.28;103218.34;5104494;28;20055;-80
2024/01/09 06:31:26;;;;;;;6.55;2.22;;;;;;;-6.01;77.57;103215.16;5107501;27;20081;-80
2024/01/09 06:33:51;;;;;;;7.70;2.95;;;;;;;-6.01;77.75;103220.28;5089327;28;20027;-80
2024/01/09 06:36:17;;;;;;;6.03;2.65;;;;;;;-6.02;77.56;103219.41;5098902;27;20080;-80
2024/01/09 06:38:42;;;;;;;3.20;2.00;;;;;;;-6.01;77.75;103227.97;5126917;27;20030;-80
2024/01/09 06:41:07;;;;;;;2.85;2.03;;;;;;;-6.01;77.62;103230.53;5121391;27;20035;-80
2024/01/09 06:43:33;;;;;;;2.53;1.75;;;;;;;-6.00;77.79;103237.44;5119030;27;20095;-80
2024/01/09 06:45:58;;;;;;;9.45;3.30;;;;;;;-6.03;77.86;103237.31;5124504;27;20033;-79
2024/01/09 06:48:23;;;;;;;5.28;2.70;;;;;;;-6.02;78.15;103239.91;5126893;27;20037;-80
2024/01/09 06:50:49;;;;;;;2.67;1.73;;;;;;;-6.01;77.85;103240.78;5114032;27;20042;-80
2024/01/09 06:53:14;;;;;;;8.75;6.65;;;;;;;-6.12;78.59;103237.00;5116603;27;20494;-79
2024/01/09 06:55:39;;;;;;;7.22;2.72;;;;;;;-6.06;78.33;103248.31;5122596;27;20514;-79
2024/01/09 06:58:05;;;;;;;8.82;6.75;;;;;;;-6.14;78.86;103238.66;5107326;27;20447;-80
2024/01/09 07:00:30;;;;;;;5.88;2.67;;;;;;;-6.09;78.73;103243.09;5114334;27;20023;-79
2024/01/09 07:02:56;;;;;;;4.72;2.75;;;;;;;-6.08;78.83;103238.84;5104944;27;20034;-80
2024/01/09 07:05:22;;;;;;;4.95;2.78;;;;;;;-6.10;78.94;103233.69;5126750;27;20044;-80
2024/01/09 07:07:47;;;;;;;4.93;2.58;;;;;;;-6.09;79.29;103242.25;5103609;27;20035;-80
2024/01/09 07:10:13;;;;;;;8.27;3.90;;;;;;;-6.08;78.77;103243.97;5105696;27;20071;-80
2024/01/09 07:12:39;;;;;;;12.48;3.50;;;;;;;-6.09;78.88;103242.25;5128316;27;20770;-80
2024/01/09 07:15:08;;;;;;;4.93;2.65;;;;;;;-6.10;78.94;103241.38;5125525;27;20031;-80
2024/01/09 07:17:33;;;;;;;3.97;2.70;;;;;;;-6.10;79.25;103246.50;5127595;27;20102;-80
2024/01/09 07:19:58;;;;;;;4.93;2.88;;;;;;;-6.08;79.33;103241.41;5123100;27;20110;-80
2024/01/09 07:22:24;;;;;;;8.13;6.88;;;;;;;-6.12;79.35;103242.13;5107035;27;20019;-79
2024/01/09 07:24:49;;;;;;;9.73;6.78;;;;;;;-6.16;79.94;103237.72;5104574;27;20448;-79
2024/01/09 07:27:14;;;;;;;4.43;2.65;;;;;;;-6.09;79.64;103243.09;5100911;28;20537;-79
2024/01/09 07:29:40;;;;;;;6.25;2.95;;;;;;;-6.10;79.38;103250.75;5097648;28;20550;-79
2024/01/09 07:32:05;;;;;;;6.20;3.67;;;;;;;-6.10;79.62;103250.75;5105472;28;20480;-80
2024/01/09 07:34:31;;;;;;;3.60;2.17;;;;;;;-6.11;80.14;103247.31;5106313;28;20077;-80
2024/01/09 07:36:56;;;;;;;6.43;3.28;;;;;;;-6.09;80.11;103257.59;5089843;28;20028;-80
2024/01/09 07:39:21;;;;;;;6.60;3.10;;;;;;;-6.09;79.73;103263.59;5103210;27;20027;-80
2024/01/09 07:41:48;;;;;;;7.70;3.58;;;;;;;-6.08;79.75;103265.34;5113287;27;20028;-79
2024/01/09 07:44:13;;;;;;;9.43;7.15;;;;;;;-6.15;79.53;103265.09;5112298;27;20031;-79
2024/01/09 07:46:38;;;;;;;8.52;3.55;;;;;;;-6.05;79.42;103274.81;5110469;27;20087;-80
2024/01/09 07:49:04;;;;;;;7.22;3.65;;;;;;;-6.09;79.05;103272.97;5125541;27;20387;-80
2024/01/09 07:51:29;;;;;;;6.40;3.53;;;;;;;-6.07;79.15;103276.47;5119467;27;20100;-79
2024/01/09 07:53:54;;;;;;;5.15;2.83;;;;;;;-6.08;79.54;103270.47;5115149;27;20514;-79
2024/01/09 07:56:21;;;;;;;3.88;1.98;;;;;;;-6.04;79.08;103281.69;5112328;27;20032;-80
2024/01/09 07:58:49;;;;;;;9.20;3.90;;;;;;;-6.05;79.15;103282.50;5087943;27;20031;-79
2024/01/09 08:01:16;;;;;;;7.75;3.67;;;;;;;-6.05;79.55;103272.25;5115110;27;20035;-79
2024/01/09 08:03:42;;;;;;;10.38;7.47;;;;;;;-6.14;79.21;103279.66;5107037;27;20379;-79
2024/01/09 08:06:15;;;;;;;5.10;2.95;;;;;;;-6.11;80.11;103275.50;5089392;28;20034;-79
2024/01/09 08:08:41;;;;;;;4.40;2.20;;;;;;;-6.09;79.86;103278.97;5109339;27;20058;-79
2024/01/09 08:11:07;;;;;;;6.70;3.17;;;;;;;-6.06;79.32;103273.94;5090096;27;20100;-80
2024/01/09 08:13:33;;;;;;;5.15;2.75;;;;;;;-6.02;79.51;103282.59;5115686;27;20027;-80
2024/01/09 08:15:58;;;;;;;5.22;3.25;;;;;;;-6.02;78.86;103280.91;5099527;27;20050;-80
2024/01/09 08:18:24;;;;;;;4.82;2.35;;;;;;;-6.01;79.17;103290.34;5119004;27;20142;-80
2024/01/09 08:20:49;;;;;;;6.40;3.03;;;;;;;-6.00;79.76;103291.25;5117395;27;20038;-80
2024/01/09 08:23:16;;;;;;;6.43;3.28;;;;;;;-5.97;78.92;103286.22;5108770;28;20074;-80
2024/01/09 08:25:42;;;;;;;6.45;3.22;;;;;;;-5.96;79.15;103287.97;5090277;28;20239;-79
2024/01/09 08:28:08;;;;;;;7.38;3.17;;;;;;;-5.93;79.34;103290.63;5106482;27;20170;-79
2024/01/09 08:30:33;;;;;;;6.55;3.42;;;;;;;-5.89;79.75;103296.72;5093307;27;20026;-79
2024/01/09 08:32:59;;;;;;;6.57;3.13;;;;;;;-5.86;79.49;103292.53;5113800;28;20026;-79
2024/01/09 08:35:24;;;;;;;10.80;7.78;;;;;;;-5.85;79.43;103294.28;5101213;28;20031;-79
2024/01/09 08:37:50;;;;;;;11.15;8.70;;;;;;;-5.87;79.69;103283.09;5113057;28;20494;-79
2024/01/09 08:40:15;;;;;;;5.18;2.88;;;;;;;-5.79;79.34;103293.59;5112364;28;20542;-79
2024/01/09 08:42:40;;;;;;;6.53;3.10;;;;;;;-5.78;79.22;103291.09;5117470;28;20042;-80
2024/01/09 08:45:08;;;;;;;9.07;7.80;;;;;;;-5.84;78.91;103298.59;5093531;28;20030;-79
2024/01/09 08:47:33;;;;;;;10.32;8.18;;;;;;;-5.81;78.99;103296.13;5124047;28;20075;-79
2024/01/09 08:49:59;;;;;;;9.68;8.00;;;;;;;-5.83;78.80;103287.50;5106951;28;20098;-79
2024/01/09 08:52:25;;;;;;;9.98;7.72;;;;;;;-5.83;78.47;103292.63;5106702;28;20030;-79
2024/01/09 08:54:52;;;;;;;6.13;3.10;;;;;;;-5.76;79.11;103302.25;5110131;28;20099;-79
2024/01/09 08:57:18;;;;;;;10.70;8.05;;;;;;;-5.81;78.86;103291.00;5111798;28;20799;-79
2024/01/09 08:59:44;;;;;;;10.55;8.45;;;;;;;-5.78;77.99;103292.78;5092778;28;20863;-79
2024/01/09 09:02:09;;;;;;;11.32;9.02;;;;;;;-5.76;77.79;103293.69;5086096;28;20122;-79
2024/01/09 09:04:35;;;;;;;11.43;3.95;;;;;;;-5.68;78.27;103303.38;5105803;28;20027;-79
2024/01/09 09:07:00;;;;;;;11.35;8.80;;;;;;;-5.70;77.77;103305.03;5104269;28;20666;-79
2024/01/09 09:09:25;;;;;;;8.05;4.15;;;;;;;-5.63;77.04;103310.34;5109732;28;20107;-79
2024/01/09 09:11:51;;;;;;;8.82;2.95;;;;;;;-5.62;77.16;103307.81;5105385;28;20101;-79
2024/01/09 09:14:16;;;;;;;6.35;3.60;;;;;;;-5.58;77.69;103309.69;5104349;28;20483;-79
2024/01/09 09:16:43;;;;;;;5.53;2.80;;;;;;;-5.54;78.24;103310.66;5088740;28;20644;-79
2024/01/09 09:19:08;;;;;;;4.43;2.92;;;;;;;-5.45;77.38;103309.25;5125477;28;20054;-79
2024/01/09 09:21:34;;;;;;;10.13;3.08;;;;;;;-5.44;77.06;103315.25;5106302;28;20494;-79
2024/01/09 09:23:59;;;;;;;10.88;8.18;;;;;;;-5.44;76.99;103307.56;5125382;27;20459;-79
2024/01/09 09:26:25;;;;;;;9.75;4.13;;;;;;;-5.37;75.78;103304.34;5119790;28;20031;-80
2024/01/09 09:28:50;;;;;;;10.25;8.35;;;;;;;-5.37;75.05;103300.09;5109993;28;20023;-80
2024/01/09 09:31:16;;;;;;;4.80;2.95;;;;;;;-5.31;75.47;103303.66;5117830;27;20038;-80
2024/01/09 09:33:42;;;;;;;5.53;2.75;;;;;;;-5.24;75.17;103306.47;5118648;28;20389;-79
2024/01/09 09:36:07;;;;;;;10.65;8.00;;;;;;;-5.24;74.07;103303.91;5104484;28;20118;-79
2024/01/09 09:38:33;;;;;;;9.15;3.70;;;;;;;-5.14;74.24;103300.81;5122119;27;20016;-79
2024/01/09 09:41:04;;;;;;;8.18;4.25;;;;;;;-5.11;73.35;103307.72;5107880;28;20042;-79
2024/01/09 09:43:32;;;;;;;6.80;4.03;;;;;;;-5.05;73.89;103313.03;5126023;27;20109;-79
2024/01/09 09:46:01;;;;;;;7.90;4.25;;;;;;;-5.05;72.86;103297.66;5109065;27;20027;-80
2024/01/09 09:48:28;;;;;;;9.68;3.50;;;;;;;-5.02;73.24;103297.72;5109977;28;20026;-80
2024/01/09 09:50:57;;;;;;;10.10;8.18;;;;;;;-4.97;73.28;103292.72;5097273;28;20402;-84
2024/01/09 09:53:27;;;;;;;6.53;2.65;;;;;;;-4.89;73.43;103293.81;5094243;27;20026;-81
2024/01/09 09:55:53;;;;;;;6.22;3.17;;;;;;;-4.86;73.62;103301.59;5102265;27;20051;-81
2024/01/09 09:58:18;;;;;;;3.97;2.80;;;;;;;-4.80;72.67;103296.69;5124945;27;20434;-82
2024/01/09 10:00:44;;;;;;;7.90;4.82;;;;;;;-4.78;71.78;103302.72;5125546;27;20035;-82
2024/01/09 10:03:11;;;;;;;9.85;5.05;;;;;;;-4.72;71.86;103300.34;5121252;27;20058;-83
2024/01/09 10:05:40;;;;;;;9.70;5.10;;;;;;;-4.71;71.50;103293.50;5128206;27;20015;-84
2024/01/09 10:08:09;;;;;;;6.88;4.00;;;;;;;-4.69;70.98;103282.44;5122690;27;20026;-84
2024/01/09 10:10:35;;;;;;;9.88;5.05;;;;;;;-4.66;70.85;103287.66;5127089;27;20054;-84
2024/01/09 10:13:01;;;;;;;6.70;3.75;;;;;;;-4.65;70.15;103279.13;5127456;27;20528;-84
2024/01/09 10:15:26;;;;;;;3.83;2.17;;;;;;;-4.60;71.34;103276.69;5128512;27;20031;-83
2024/01/09 10:17:52;;;;;;;6.95;3.72;;;;;;;-4.57;70.35;103276.75;5109631;27;20024;-83
2024/01/09 10:20:18;;;;;;;7.07;3.83;;;;;;;-4.51;70.73;103280.38;5110361;27;20589;-83
2024/01/09 10:22:44;;;;;;;14.50;9.30;;;;;;;-4.55;69.65;103275.97;5110429;27;20070;-83
2024/01/09 10:25:11;;;;;;;5.45;3.17;;;;;;;-4.46;70.05;103275.34;5127042;27;20471;-83
2024/01/09 10:27:38;;;;;;;9.20;3.90;;;;;;;-4.43;69.55;103278.88;5128983;27;20387;-83
2024/01/09 10:30:08;;;;;;;10.52;7.97;;;;;;;-4.43;68.81;103270.28;5127619;27;20067;-83
2024/01/09 10:32:35;;;;;;;9.30;8.15;;;;;;;-4.38;67.95;103283.28;5128076;27;20471;-83
2024/01/09 10:35:03;;;;;;;12.65;8.23;;;;;;;-4.35;68.49;103278.22;5109326;27;20126;-83
2024/01/09 10:37:30;;;;;;;10.95;4.07;;;;;;;-4.27;68.28;103269.88;5129224;27;20043;-83
2024/01/09 10:39:55;;;;;;;4.53;2.22;;;;;;;-4.23;68.53;103269.13;5128653;27;20106;-82
2024/01/09 10:42:21;;;;;;;5.35;2.78;;;;;;;-4.17;69.54;103265.84;5128974;27;20499;-82
2024/01/09 10:44:49;;;;;;;11.90;8.10;;;;;;;-4.17;67.94;103266.72;5119011;27;20023;-82
2024/01/09 10:47:17;;;;;;;11.18;3.13;;;;;;;-4.09;67.80;103269.47;5107259;28;20122;-82
2024/01/09 10:49:44;;;;;;;7.32;3.13;;;;;;;-4.03;67.96;103261.91;5110551;27;20018;-82
2024/01/09 10:52:14;;;;;;;6.72;3.47;;;;;;;-3.99;67.36;103260.31;5127659;27;20045;-83
2024/01/09 10:54:41;;;;;;;5.95;2.97;;;;;;;-3.98;67.48;103254.34;5110671;27;20023;-82
2024/01/09 10:57:11;;;;;;;5.32;2.95;;;;;;;-3.94;66.80;103254.44;5109886;27;20035;-83
2024/01/09 10:59:39;;;;;;;8.77;3.83;;;;;;;-3.89;66.36;103241.72;5111316;27;20100;-83
2024/01/09 11:02:04;;;;;;;14.65;5.72;;;;;;;-3.90;66.27;103240.84;5098409;27;20374;-83
2024/01/09 11:04:31;;;;;;;6.97;4.00;;;;;;;-3.82;66.44;103235.88;5098324;28;20031;-83
2024/01/09 11:06:56;;;;;;;13.45;5.35;;;;;;;-3.78;66.75;103229.97;5115921;27;20090;-82
2024/01/09 11:09:23;;;;;;;15.32;10.93;;;;;;;-3.80;64.72;103229.94;5111723;27;20028;-83
2024/01/09 11:11:49;;;;;;;6.70;3.15;;;;;;;-3.71;66.16;103228.41;5089903;27;20048;-83
2024/01/09 11:14:16;;;;;;;5.72;2.90;;;;;;;-3.69;65.66;103219.00;5107303;27;20027;-83
2024/01/09 11:16:45;;;;;;;11.73;8.40;;;;;;;-3.66;64.76;103222.53;5106187;27;20406;-83
2024/01/09 11:19:13;;;;;;;10.23;3.75;;;;;;;-3.58;64.81;103221.03;5128217;27;20589;-83